createdAt,value
2023-07-20T00:03:20.684Z,59.43
2023-07-20T00:05:47.790Z,59.67
2023-07-20T00:08:14.840Z,59.01
2023-07-20T00:10:42.787Z,58.98
2023-07-20T00:13:10.978Z,59.32
2023-07-20T00:15:39.060Z,58.39
2023-07-20T00:18:06.669Z,58.49
2023-07-20T00:20:33.624Z,58.57
2023-07-20T00:23:00.665Z,58.03
2023-07-20T00:25:27.623Z,58.05
2023-07-20T00:27:54.578Z,58.05
2023-07-20T00:30:21.616Z,58.47
2023-07-20T00:32:48.563Z,58.47
2023-07-20T00:35:15.566Z,59.52
2023-07-20T00:37:42.494Z,59.67
2023-07-20T00:40:10.278Z,61.29
2023-07-20T00:42:37.230Z,62.57
2023-07-20T00:45:04.760Z,62.03
2023-07-20T00:47:34.046Z,61.83
2023-07-20T00:50:01.204Z,61.93
2023-07-20T00:52:30.103Z,61.80
2023-07-20T00:54:57.858Z,62.07
2023-07-20T00:57:27.156Z,62.55
2023-07-20T00:59:54.324Z,63.43
2023-07-20T01:02:21.302Z,62.92
2023-07-20T01:04:48.647Z,63.15
2023-07-20T01:07:36.059Z,62.78
2023-07-20T01:10:30.928Z,63.30
2023-07-20T01:12:58.687Z,63.45
2023-07-20T01:15:25.585Z,63.71
2023-07-20T01:17:52.563Z,64.48
2023-07-20T01:20:23.461Z,64.43
2023-07-20T01:23:17.813Z,65.15
2023-07-20T01:26:28.735Z,65.36
2023-07-20T01:29:38.635Z,65.82
2023-07-20T01:32:08.405Z,66.00
2023-07-20T01:34:37.759Z,66.07
2023-07-20T01:37:05.254Z,65.93
2023-07-20T01:39:34.159Z,66.83
2023-07-20T01:42:01.884Z,66.22
2023-07-20T01:44:30.313Z,66.48
2023-07-20T01:46:57.211Z,67.09
2023-07-20T01:49:24.341Z,67.25
2023-07-20T01:51:51.228Z,66.84
2023-07-20T01:54:18.289Z,67.35
2023-07-20T01:56:45.154Z,67.08
2023-07-20T01:59:12.029Z,67.85
2023-07-20T02:01:38.966Z,68.77
2023-07-20T02:04:05.871Z,69.81
2023-07-20T02:06:33.120Z,70.56
2023-07-20T02:09:00.346Z,70.45
2023-07-20T02:11:27.235Z,70.21
2023-07-20T02:13:54.162Z,70.23
2023-07-20T02:16:21.214Z,72.17
2023-07-20T02:18:48.514Z,72.40
2023-07-20T02:21:15.453Z,72.67
2023-07-20T02:23:42.693Z,73.33
2023-07-20T02:26:09.588Z,73.93
2023-07-20T02:28:36.455Z,74.53
2023-07-20T02:31:03.356Z,74.09
2023-07-20T02:33:30.218Z,73.21
2023-07-20T02:35:57.088Z,72.91
2023-07-20T02:38:23.963Z,73.98
2023-07-20T02:40:51.757Z,74.50
2023-07-20T02:43:18.613Z,74.15
2023-07-20T02:45:45.525Z,75.02
2023-07-20T02:48:12.493Z,74.80
2023-07-20T02:50:39.374Z,75.69
2023-07-20T02:53:06.236Z,76.62
2023-07-20T02:55:33.116Z,76.05
2023-07-20T02:58:00.153Z,76.25
2023-07-20T03:00:27.465Z,76.08
2023-07-20T03:02:57.226Z,77.64
2023-07-20T03:05:28.645Z,77.21
2023-07-20T03:07:57.336Z,76.97
2023-07-20T03:10:24.230Z,76.61
2023-07-20T03:12:51.099Z,77.63
2023-07-20T03:15:18.037Z,78.47
2023-07-20T03:17:45.002Z,78.40
2023-07-20T03:20:14.076Z,78.83
2023-07-20T03:22:41.076Z,78.57
2023-07-20T03:25:09.287Z,78.17
2023-07-20T03:27:36.185Z,78.68
2023-07-20T03:30:03.393Z,78.20
2023-07-20T03:32:30.331Z,77.98
2023-07-20T03:34:57.267Z,77.77
2023-07-20T03:37:24.128Z,77.51
2023-07-20T03:39:51.038Z,78.50
2023-07-20T03:42:17.933Z,79.58
2023-07-20T03:44:44.857Z,79.01
2023-07-20T03:47:11.824Z,80.20
2023-07-20T03:49:39.032Z,80.17
2023-07-20T03:52:06.263Z,79.72
2023-07-20T03:54:33.166Z,80.12
2023-07-20T03:57:00.441Z,80.89
2023-07-20T03:59:27.445Z,81.27
2023-07-20T04:01:54.369Z,81.30
2023-07-20T04:04:21.371Z,81.73
2023-07-20T04:06:48.278Z,80.96
2023-07-20T04:09:15.211Z,82.10
2023-07-20T04:11:42.141Z,81.88
2023-07-20T04:14:09.019Z,81.08
2023-07-20T04:16:35.941Z,82.23
2023-07-20T04:19:02.839Z,81.78
2023-07-20T04:21:29.898Z,82.81
2023-07-20T04:23:56.864Z,83.34
2023-07-20T04:26:23.837Z,83.19
2023-07-20T04:28:52.103Z,84.38
2023-07-20T04:31:19.012Z,83.98
2023-07-20T04:33:45.947Z,84.30
2023-07-20T04:36:12.819Z,84.58
2023-07-20T04:38:39.719Z,84.75
2023-07-20T04:41:06.606Z,85.38
2023-07-20T04:43:33.506Z,83.97
2023-07-20T04:46:00.385Z,83.30
2023-07-20T04:48:27.277Z,83.00
2023-07-20T04:50:54.204Z,83.47
2023-07-20T04:53:21.166Z,83.88
2023-07-20T04:55:53.581Z,82.89
2023-07-20T04:58:22.631Z,82.84
2023-07-20T05:00:51.037Z,82.67
2023-07-20T05:03:19.153Z,82.56
2023-07-20T05:05:49.407Z,83.06
2023-07-20T05:08:17.692Z,83.77
2023-07-20T05:10:44.633Z,83.54
2023-07-20T05:13:11.527Z,83.18
2023-07-20T05:15:38.462Z,82.57
2023-07-20T05:18:05.468Z,83.54
2023-07-20T05:20:34.521Z,82.94
2023-07-20T05:23:02.405Z,83.44
2023-07-20T05:25:31.464Z,83.03
2023-07-20T05:27:58.928Z,83.85
2023-07-20T05:30:25.919Z,83.39
2023-07-20T05:32:54.001Z,83.27
2023-07-20T05:35:21.594Z,83.55
2023-07-20T05:37:48.482Z,83.97
2023-07-20T05:40:22.230Z,83.13
2023-07-20T05:42:53.180Z,82.93
2023-07-20T05:45:20.337Z,83.16
2023-07-20T05:47:48.082Z,83.68
2023-07-20T05:50:15.013Z,84.06
2023-07-20T05:52:42.382Z,82.83
2023-07-20T05:55:09.783Z,83.25
2023-07-20T05:57:36.955Z,82.00
2023-07-20T06:00:04.991Z,82.79
2023-07-20T06:02:34.112Z,82.71
2023-07-20T06:05:01.196Z,82.93
2023-07-20T06:07:28.232Z,82.67
2023-07-20T06:09:55.115Z,82.03
2023-07-20T06:12:21.980Z,81.29
2023-07-20T06:14:48.907Z,80.89
2023-07-20T06:17:15.783Z,80.06
2023-07-20T06:19:42.675Z,80.04
2023-07-20T06:22:09.556Z,79.70
2023-07-20T06:24:36.434Z,80.16
2023-07-20T06:27:04.378Z,80.90
2023-07-20T06:29:31.248Z,80.79
2023-07-20T06:31:58.104Z,78.07
2023-07-20T06:34:25.015Z,76.78
2023-07-20T06:36:51.919Z,75.86
2023-07-20T06:41:48.555Z,71.65
2023-07-20T06:44:15.430Z,72.83
2023-07-20T06:46:42.388Z,72.06
2023-07-20T06:51:39.240Z,69.78
2023-07-20T06:54:06.292Z,70.20
2023-07-20T06:56:33.946Z,67.35
2023-07-20T06:59:01.219Z,66.29
2023-07-20T07:01:28.566Z,65.15
2023-07-20T07:03:56.295Z,65.12
2023-07-20T07:06:24.672Z,66.89
2023-07-20T07:08:52.208Z,66.12
2023-07-20T07:11:19.119Z,65.88
2023-07-20T07:13:48.229Z,65.79
2023-07-20T07:16:21.214Z,65.92
2023-07-20T07:18:48.434Z,65.17
2023-07-20T07:21:15.424Z,63.83
2023-07-20T07:23:42.397Z,62.62
2023-07-20T07:26:09.845Z,62.55
2023-07-20T07:28:37.325Z,64.14
2023-07-20T07:31:07.647Z,64.13
2023-07-20T07:33:36.142Z,63.47
2023-07-20T07:36:03.489Z,61.51
2023-07-20T07:38:49.368Z,59.83
2023-07-20T07:41:17.606Z,59.60
2023-07-20T07:43:44.514Z,57.00
2023-07-20T07:46:11.388Z,57.66
2023-07-20T07:48:38.273Z,57.75
2023-07-20T07:51:05.177Z,59.06
2023-07-20T07:53:32.100Z,57.06
2023-07-20T07:55:59.038Z,57.33
2023-07-20T07:58:26.048Z,56.96
2023-07-20T08:00:52.921Z,52.18
2023-07-20T08:03:20.268Z,52.31
2023-07-20T08:05:47.236Z,52.45
2023-07-20T08:08:14.129Z,52.76
2023-07-20T08:10:41.026Z,50.78
2023-07-20T08:13:07.993Z,50.71
2023-07-20T08:15:34.920Z,52.33
2023-07-20T08:18:02.222Z,48.96
2023-07-20T08:20:29.241Z,49.50
2023-07-20T08:22:56.690Z,48.69
2023-07-20T08:25:23.569Z,47.46
2023-07-20T08:27:50.495Z,49.64
2023-07-20T08:30:17.473Z,49.20
2023-07-20T08:32:44.600Z,48.24
2023-07-20T08:35:11.603Z,45.63
2023-07-20T08:37:38.538Z,45.83
2023-07-20T08:40:05.963Z,46.82
2023-07-20T08:42:33.216Z,45.75
2023-07-20T08:45:01.631Z,46.10
2023-07-20T08:47:29.010Z,44.91
2023-07-20T08:49:57.028Z,45.79
2023-07-20T08:52:23.904Z,46.44
2023-07-20T08:54:51.150Z,44.21
2023-07-20T08:57:19.253Z,43.98
2023-07-20T08:59:46.320Z,44.84
2023-07-20T09:02:19.717Z,44.62
2023-07-20T09:04:47.069Z,44.57
2023-07-20T09:07:16.000Z,44.46
2023-07-20T09:09:43.589Z,42.82
2023-07-20T09:12:17.689Z,45.47
2023-07-20T09:14:46.112Z,44.33
2023-07-20T09:17:18.048Z,44.71
2023-07-20T09:19:49.322Z,44.55
2023-07-20T09:22:16.358Z,43.29
2023-07-20T09:24:44.702Z,43.27
2023-07-20T09:27:12.461Z,44.41
2023-07-20T09:29:52.771Z,43.62
2023-07-20T09:32:24.991Z,43.74
2023-07-20T09:34:53.243Z,45.22
2023-07-20T09:37:24.368Z,44.79
2023-07-20T09:44:57.490Z,45.50
2023-07-20T09:47:29.056Z,43.48
2023-07-20T09:55:07.131Z,41.50
2023-07-20T09:57:36.052Z,42.66
2023-07-20T10:02:45.391Z,42.53
2023-07-20T10:05:16.739Z,42.57
2023-07-20T10:07:51.406Z,43.39
2023-07-20T10:10:20.212Z,43.34
2023-07-20T10:12:50.396Z,42.73
2023-07-20T10:15:24.761Z,43.14
2023-07-20T10:18:20.144Z,42.48
2023-07-20T10:23:19.043Z,42.69
2023-07-20T10:25:47.380Z,40.98
2023-07-20T10:28:14.900Z,41.83
2023-07-20T10:30:43.466Z,40.12
2023-07-20T10:33:10.897Z,42.14
2023-07-20T10:35:58.946Z,41.82
2023-07-20T10:38:58.320Z,39.93
2023-07-20T10:41:41.924Z,40.27
2023-07-20T10:44:10.906Z,41.20
2023-07-20T10:46:41.051Z,40.59
2023-07-20T10:49:10.470Z,41.84
2023-07-20T10:51:49.315Z,38.75
2023-07-20T10:54:19.236Z,38.36
2023-07-20T10:56:52.371Z,38.09
2023-07-20T10:59:21.326Z,38.12
2023-07-20T11:01:51.136Z,39.24
2023-07-20T11:04:20.294Z,39.00
2023-07-20T11:06:47.951Z,39.02
2023-07-20T11:09:16.527Z,39.01
2023-07-20T11:12:17.371Z,38.97
2023-07-20T11:14:58.493Z,38.37
2023-07-20T11:17:33.695Z,39.69
2023-07-20T11:22:34.203Z,39.44
2023-07-20T11:25:01.105Z,41.80
2023-07-20T11:27:29.748Z,39.96
2023-07-20T11:29:58.143Z,37.98
2023-07-20T11:32:26.020Z,37.39
2023-07-20T11:34:53.279Z,36.50
2023-07-20T11:37:20.240Z,36.95
2023-07-20T11:39:48.052Z,36.72
2023-07-20T11:43:19.970Z,36.45
2023-07-20T11:45:06.673Z,35.86
2023-07-20T11:47:34.712Z,34.47
2023-07-20T11:50:05.711Z,34.28
2023-07-20T11:52:32.949Z,35.31
2023-07-20T11:55:00.291Z,35.99
2023-07-20T11:57:27.959Z,35.84
2023-07-20T12:00:05.597Z,35.90
2023-07-20T12:02:33.329Z,35.96
2023-07-20T12:05:00.367Z,36.68
2023-07-20T12:07:30.016Z,36.88
2023-07-20T12:10:12.179Z,34.34
2023-07-20T12:12:40.718Z,34.40
2023-07-20T12:15:24.490Z,34.22
2023-07-20T12:17:56.973Z,33.44
2023-07-20T12:20:38.241Z,33.64
2023-07-20T12:23:10.471Z,34.87
2023-07-20T12:25:44.048Z,33.71
2023-07-20T12:28:18.582Z,33.09
2023-07-20T12:30:47.136Z,34.34
2023-07-20T12:33:17.433Z,33.52
2023-07-20T12:35:44.967Z,33.24
2023-07-20T12:38:11.944Z,34.19
2023-07-20T12:40:38.865Z,33.82
2023-07-20T12:43:06.154Z,34.16
2023-07-20T12:45:33.305Z,34.51
2023-07-20T12:48:00.649Z,33.08
2023-07-20T12:50:28.254Z,32.98
2023-07-20T12:52:55.202Z,32.67
2023-07-20T12:55:22.286Z,32.88
2023-07-20T12:57:49.206Z,32.43
2023-07-20T13:00:17.724Z,30.50
2023-07-20T13:02:44.904Z,31.82
2023-07-20T13:05:11.871Z,32.67
2023-07-20T13:10:12.065Z,32.03
2023-07-20T13:12:39.976Z,30.40
2023-07-20T13:15:09.822Z,29.90
2023-07-20T13:17:39.946Z,30.12
2023-07-20T13:20:11.322Z,29.71
2023-07-20T13:22:39.392Z,30.31
2023-07-20T13:25:07.712Z,29.82
2023-07-20T13:27:35.828Z,29.36
2023-07-20T13:30:09.808Z,29.08
2023-07-20T13:32:37.942Z,28.34
2023-07-20T13:35:06.061Z,28.42
2023-07-20T13:37:32.967Z,28.67
2023-07-20T13:39:59.856Z,30.36
2023-07-20T13:42:26.863Z,28.40
2023-07-20T13:44:53.847Z,28.88
2023-07-20T13:47:22.302Z,29.34
2023-07-20T13:49:50.031Z,28.35
2023-07-20T13:55:00.259Z,28.97
2023-07-20T13:57:28.026Z,28.17
2023-07-20T13:59:55.213Z,28.36
2023-07-20T14:06:17.384Z,28.15
2023-07-20T14:07:38.864Z,27.38
2023-07-20T14:12:36.390Z,27.03
2023-07-20T14:15:03.679Z,27.65
2023-07-20T14:17:32.781Z,28.18
2023-07-20T14:19:59.881Z,27.10
2023-07-20T14:22:27.630Z,26.78
2023-07-20T14:24:54.794Z,26.96
2023-07-20T14:27:21.869Z,27.39
2023-07-20T14:29:48.836Z,26.77
2023-07-20T14:32:15.818Z,26.63
2023-07-20T14:34:42.809Z,27.14
2023-07-20T14:37:09.726Z,27.85
2023-07-20T14:39:36.707Z,28.13
2023-07-20T14:42:05.344Z,28.57
2023-07-20T14:44:34.317Z,29.20
2023-07-20T14:47:13.620Z,29.44
2023-07-20T14:49:42.289Z,29.71
2023-07-20T14:54:39.197Z,28.94
2023-07-20T14:57:08.784Z,29.10
2023-07-20T14:59:35.811Z,29.30
2023-07-20T15:02:02.723Z,29.10
2023-07-20T15:04:29.837Z,29.03
2023-07-20T15:06:57.642Z,29.52
2023-07-20T15:09:24.516Z,29.92
2023-07-20T15:11:51.393Z,29.61
2023-07-20T15:14:18.427Z,29.18
2023-07-20T15:16:47.574Z,29.55
2023-07-20T15:19:17.272Z,29.70
2023-07-20T15:21:44.135Z,29.70
2023-07-20T15:24:11.454Z,29.78
2023-07-20T15:26:38.368Z,30.39
2023-07-20T15:29:05.289Z,31.56
2023-07-20T15:34:02.023Z,31.56
2023-07-20T15:36:29.031Z,32.65
2023-07-20T15:38:55.919Z,30.21
2023-07-20T15:41:23.586Z,31.28
2023-07-20T15:43:53.900Z,30.02
2023-07-20T15:46:20.868Z,30.57
2023-07-20T15:48:48.598Z,31.24
2023-07-20T15:51:15.566Z,31.94
2023-07-20T15:53:42.526Z,31.66
2023-07-20T15:56:09.559Z,30.79
2023-07-20T15:58:36.429Z,30.55
2023-07-20T16:01:03.371Z,30.33
2023-07-20T16:06:00.126Z,31.45
2023-07-20T16:08:28.113Z,30.72
2023-07-20T16:13:25.181Z,31.07
2023-07-20T16:15:53.726Z,31.36
2023-07-20T16:18:20.988Z,31.80
2023-07-20T16:20:47.876Z,31.76
2023-07-20T16:23:15.148Z,32.36
2023-07-20T16:25:42.023Z,31.16
2023-07-20T16:28:11.012Z,30.80
2023-07-20T16:30:37.942Z,30.83
2023-07-20T16:33:05.339Z,31.02
2023-07-20T16:40:56.196Z,30.56
2023-07-20T16:44:05.757Z,30.40
2023-07-20T16:51:11.219Z,29.71
2023-07-20T16:53:38.164Z,29.97
2023-07-20T16:56:05.243Z,30.11
2023-07-20T16:58:32.135Z,29.58
2023-07-20T17:01:06.141Z,28.37
2023-07-20T17:03:33.919Z,28.81
2023-07-20T17:06:01.457Z,27.59
2023-07-20T17:08:32.745Z,28.88
2023-07-20T17:11:00.037Z,26.83
2023-07-20T17:13:26.953Z,27.87
2023-07-20T17:15:53.833Z,27.19
2023-07-20T17:18:20.848Z,27.34
2023-07-20T17:24:01.111Z,28.48
2023-07-20T17:31:04.955Z,29.08
2023-07-20T17:33:31.861Z,28.64
2023-07-20T17:40:58.345Z,29.54
2023-07-20T17:43:25.241Z,30.01
2023-07-20T17:45:52.212Z,30.69
2023-07-20T17:48:19.255Z,31.23
2023-07-20T17:50:46.567Z,31.02
2023-07-20T17:53:13.460Z,31.79
2023-07-20T17:55:45.054Z,31.70
2023-07-20T17:58:11.975Z,33.22
2023-07-20T18:00:39.164Z,33.76
2023-07-20T18:03:06.660Z,34.38
2023-07-20T18:05:33.650Z,34.22
2023-07-20T18:08:00.887Z,34.59
2023-07-20T18:10:28.029Z,35.26
2023-07-20T18:12:55.112Z,36.53
2023-07-20T18:15:22.049Z,36.49
2023-07-20T18:17:49.030Z,36.14
2023-07-20T18:20:17.381Z,36.98
2023-07-20T18:22:45.309Z,37.21
2023-07-20T18:25:12.285Z,37.79
2023-07-20T18:27:39.625Z,39.16
2023-07-20T18:30:07.731Z,39.40
2023-07-20T18:32:34.808Z,40.01
2023-07-20T18:35:03.337Z,40.18
2023-07-20T18:37:30.690Z,41.19
2023-07-20T18:39:57.592Z,41.07
2023-07-20T18:42:24.506Z,41.98
2023-07-20T18:44:52.269Z,43.42
2023-07-20T18:47:19.315Z,43.32
2023-07-20T18:49:46.227Z,43.47
2023-07-20T18:52:13.162Z,44.21
2023-07-20T18:54:40.078Z,45.68
2023-07-20T18:57:08.396Z,46.47
2023-07-20T18:59:35.443Z,47.04
2023-07-20T19:02:02.493Z,47.42
2023-07-20T19:04:29.463Z,47.82
2023-07-20T19:06:56.332Z,47.72
2023-07-20T19:09:23.201Z,48.80
2023-07-20T19:14:21.020Z,48.35
2023-07-20T19:16:47.921Z,49.23
2023-07-20T19:19:14.848Z,50.27
2023-07-20T19:21:41.831Z,50.05
2023-07-20T19:24:09.325Z,51.12
2023-07-20T19:26:36.244Z,52.45
2023-07-20T19:29:03.864Z,51.87
2023-07-20T19:31:30.810Z,52.93
2023-07-20T19:33:57.769Z,52.83
2023-07-20T19:36:24.845Z,53.88
2023-07-20T19:38:51.924Z,53.88
2023-07-20T19:41:18.836Z,55.25
2023-07-20T19:43:45.736Z,56.45
2023-07-20T19:46:12.700Z,56.61
2023-07-20T19:48:39.679Z,56.50
2023-07-20T19:51:06.715Z,56.36
2023-07-20T19:53:34.376Z,56.05
2023-07-20T19:56:02.748Z,56.22
2023-07-20T19:58:30.354Z,57.30
2023-07-20T20:05:57.793Z,59.66
2023-07-20T20:08:27.166Z,60.31
2023-07-20T20:11:18.441Z,61.14
2023-07-20T20:13:40.954Z,62.24
2023-07-20T20:16:09.517Z,62.25
2023-07-20T20:18:38.028Z,62.16
2023-07-20T20:21:06.448Z,62.48
2023-07-20T20:23:33.361Z,62.48
2023-07-20T20:26:01.848Z,61.94
2023-07-20T20:28:29.005Z,61.89
2023-07-20T20:30:56.630Z,61.45
2023-07-20T20:33:26.027Z,61.98
2023-07-20T20:35:54.532Z,61.68
2023-07-20T20:38:22.716Z,61.77
2023-07-20T20:40:55.267Z,62.22
2023-07-20T20:43:22.861Z,62.91
2023-07-20T20:45:51.303Z,62.80
2023-07-20T20:48:18.199Z,63.94
2023-07-20T20:50:45.264Z,63.79
2023-07-20T20:53:16.615Z,63.97
2023-07-20T20:55:43.657Z,63.95
2023-07-20T20:58:10.877Z,63.74
2023-07-20T21:00:37.933Z,63.61
2023-07-20T21:03:04.914Z,64.26
2023-07-20T21:05:38.429Z,64.16
2023-07-20T21:08:05.966Z,65.05
2023-07-20T21:10:34.255Z,64.91
2023-07-20T21:13:01.250Z,66.06
2023-07-20T21:15:28.566Z,66.33
2023-07-20T21:17:55.532Z,67.19
2023-07-20T21:20:22.407Z,67.21
2023-07-20T21:22:51.047Z,67.47
2023-07-20T21:25:18.324Z,67.95
2023-07-20T21:27:45.469Z,68.12
2023-07-20T21:30:13.199Z,67.45
2023-07-20T21:32:40.186Z,67.23
2023-07-20T21:35:08.684Z,67.43
2023-07-20T21:37:35.672Z,67.91
2023-07-20T21:40:04.724Z,67.82
2023-07-20T21:42:31.950Z,68.21
2023-07-20T21:44:58.849Z,69.17
2023-07-20T21:47:26.614Z,68.96
2023-07-20T21:49:53.703Z,69.06
2023-07-20T21:52:20.630Z,69.85
2023-07-20T21:54:47.533Z,69.74
2023-07-20T21:57:14.528Z,69.76
2023-07-20T21:59:41.734Z,69.85
2023-07-20T22:02:08.744Z,70.06
2023-07-20T22:04:35.946Z,70.62
2023-07-20T22:07:04.051Z,71.17
2023-07-20T22:09:30.963Z,70.54
2023-07-20T22:11:57.904Z,69.83
2023-07-20T22:14:24.835Z,70.21
2023-07-20T22:16:52.113Z,69.77
2023-07-20T22:19:20.465Z,70.08
2023-07-20T22:21:48.360Z,69.34
2023-07-20T22:24:15.520Z,69.36
2023-07-20T22:26:42.905Z,70.83
2023-07-20T22:29:10.093Z,70.39
2023-07-20T22:31:37.134Z,70.83
2023-07-20T22:34:04.105Z,71.83
2023-07-20T22:36:31.278Z,72.19
2023-07-20T22:38:58.139Z,72.91
2023-07-20T22:41:25.031Z,72.38
2023-07-20T22:43:51.976Z,72.08
2023-07-20T22:46:19.194Z,72.27
2023-07-20T22:48:47.482Z,72.38
2023-07-20T22:51:14.447Z,73.69
2023-07-20T22:53:41.406Z,74.04
2023-07-20T22:56:08.336Z,74.04
2023-07-20T22:58:35.208Z,74.77
2023-07-20T23:01:02.149Z,74.14
2023-07-20T23:03:29.330Z,74.68
2023-07-20T23:05:56.536Z,75.95
2023-07-20T23:08:23.585Z,75.55
2023-07-20T23:10:51.407Z,76.60
2023-07-20T23:13:18.522Z,76.32
2023-07-20T23:15:45.464Z,76.76
2023-07-20T23:18:12.763Z,76.83
2023-07-20T23:20:39.726Z,77.26
2023-07-20T23:23:06.808Z,76.84
2023-07-20T23:25:33.807Z,76.37
2023-07-20T23:28:01.238Z,76.19
2023-07-20T23:30:31.092Z,75.50
2023-07-20T23:32:58.108Z,75.31
2023-07-20T23:35:24.999Z,75.17
2023-07-20T23:37:52.199Z,74.95
2023-07-20T23:40:20.062Z,74.58
2023-07-20T23:42:48.513Z,73.91
2023-07-20T23:45:15.670Z,73.98
2023-07-20T23:47:43.320Z,73.96
2023-07-20T23:50:10.871Z,74.67
2023-07-20T23:52:38.429Z,75.19
2023-07-20T23:55:10.400Z,74.53
2023-07-20T23:57:39.165Z,74.30
